sensor_id;sensor_type;location;lat;lon;timestamp;pressure;altitude;pressure_sealevel;temperature;humidity
57192;BME280;43052;52.588;13.396;2023-04-25T00:02:17;100126.50;;;8.71;64.47
57192;BME280;43052;52.588;13.396;2023-04-25T00:04:43;100130.75;;;8.82;64.39
57192;BME280;43052;52.588;13.396;2023-04-25T00:07:08;100130.69;;;8.88;64.19
57192;BME280;43052;52.588;13.396;2023-04-25T00:09:34;100134.13;;;8.91;63.93
57192;BME280;43052;52.588;13.396;2023-04-25T00:11:59;100133.28;;;8.94;63.78
57192;BME280;43052;52.588;13.396;2023-04-25T00:14:34;100135.84;;;8.99;63.91
57192;BME280;43052;52.588;13.396;2023-04-25T00:17:01;100118.44;;;8.99;63.58
57192;BME280;43052;52.588;13.396;2023-04-25T00:19:27;100121.03;;;9.02;63.30
57192;BME280;43052;52.588;13.396;2023-04-25T00:21:54;100121.03;;;9.01;63.40
57192;BME280;43052;52.588;13.396;2023-04-25T00:24:19;100122.81;;;8.96;63.71
57192;BME280;43052;52.588;13.396;2023-04-25T00:26:45;100120.22;;;8.92;63.44
57192;BME280;43052;52.588;13.396;2023-04-25T00:29:10;100126.31;;;8.93;63.54
57192;BME280;43052;52.588;13.396;2023-04-25T00:31:35;100125.47;;;8.91;63.49
57192;BME280;43052;52.588;13.396;2023-04-25T00:34:00;100121.97;;;8.90;63.17
57192;BME280;43052;52.588;13.396;2023-04-25T00:36:26;100122.88;;;8.88;63.27
57192;BME280;43052;52.588;13.396;2023-04-25T00:38:52;100111.59;;;8.84;62.73
57192;BME280;43052;52.588;13.396;2023-04-25T00:41:18;100120.25;;;8.91;62.91
57192;BME280;43052;52.588;13.396;2023-04-25T00:43:44;100113.31;;;8.88;62.56
57192;BME280;43052;52.588;13.396;2023-04-25T00:46:10;100113.28;;;8.91;62.48
57192;BME280;43052;52.588;13.396;2023-04-25T00:48:35;100118.47;;;8.94;62.35
57192;BME280;43052;52.588;13.396;2023-04-25T00:51:01;100113.25;;;8.96;62.25
57192;BME280;43052;52.588;13.396;2023-04-25T00:53:28;100112.38;;;8.97;62.38
57192;BME280;43052;52.588;13.396;2023-04-25T00:55:54;100109.78;;;8.96;62.25
57192;BME280;43052;52.588;13.396;2023-04-25T00:58:21;100118.56;;;8.84;62.03
57192;BME280;43052;52.588;13.396;2023-04-25T01:00:48;100115.19;;;8.75;62.61
57192;BME280;43052;52.588;13.396;2023-04-25T01:03:14;100107.41;;;8.68;62.49
57192;BME280;43052;52.588;13.396;2023-04-25T01:05:42;100110.91;;;8.65;62.58
57192;BME280;43052;52.588;13.396;2023-04-25T01:08:08;100107.44;;;8.66;62.46
57192;BME280;43052;52.588;13.396;2023-04-25T01:10:33;100111.78;;;8.67;62.60
57192;BME280;43052;52.588;13.396;2023-04-25T01:12:59;100109.16;;;8.66;62.60
57192;BME280;43052;52.588;13.396;2023-04-25T01:15:24;100102.22;;;8.66;62.69
57192;BME280;43052;52.588;13.396;2023-04-25T01:17:49;100100.47;;;8.68;62.49
57192;BME280;43052;52.588;13.396;2023-04-25T01:20:15;100103.06;;;8.68;62.63
57192;BME280;43052;52.588;13.396;2023-04-25T01:22:41;100087.44;;;8.67;62.72
57192;BME280;43052;52.588;13.396;2023-04-25T01:25:07;100101.31;;;8.69;62.43
57192;BME280;43052;52.588;13.396;2023-04-25T01:27:32;100108.19;;;8.79;62.18
57192;BME280;43052;52.588;13.396;2023-04-25T01:29:58;100101.19;;;8.83;62.21
57192;BME280;43052;52.588;13.396;2023-04-25T01:32:23;100104.63;;;8.88;62.26
57192;BME280;43052;52.588;13.396;2023-04-25T01:34:49;100096.78;;;8.88;62.03
57192;BME280;43052;52.588;13.396;2023-04-25T01:37:16;100108.97;;;8.87;61.93
57192;BME280;43052;52.588;13.396;2023-04-25T01:39:41;100099.41;;;8.89;62.07
57192;BME280;43052;52.588;13.396;2023-04-25T01:42:07;100101.13;;;8.90;61.57
57192;BME280;43052;52.588;13.396;2023-04-25T01:44:32;100098.50;;;8.92;61.86
57192;BME280;43052;52.588;13.396;2023-04-25T01:46:57;100089.75;;;8.96;61.60
57192;BME280;43052;52.588;13.396;2023-04-25T01:49:23;100088.91;;;8.96;61.71
57192;BME280;43052;52.588;13.396;2023-04-25T01:51:48;100097.63;;;8.93;61.89
57192;BME280;43052;52.588;13.396;2023-04-25T01:54:14;100088.09;;;8.92;61.53
57192;BME280;43052;52.588;13.396;2023-04-25T01:56:39;100095.88;;;8.93;61.73
57192;BME280;43052;52.588;13.396;2023-04-25T01:59:05;100092.41;;;8.93;61.57
57192;BME280;43052;52.588;13.396;2023-04-25T02:01:31;100108.00;;;8.99;61.83
57192;BME280;43052;52.588;13.396;2023-04-25T02:03:57;100105.38;;;9.02;61.64
57192;BME280;43052;52.588;13.396;2023-04-25T02:06:22;100101.03;;;9.01;61.59
57192;BME280;43052;52.588;13.396;2023-04-25T02:08:47;100107.06;;;9.06;61.58
57192;BME280;43052;52.588;13.396;2023-04-25T02:11:13;100103.59;;;9.04;61.38
57192;BME280;43052;52.588;13.396;2023-04-25T02:13:38;100095.72;;;9.09;61.23
57192;BME280;43052;52.588;13.396;2023-04-25T02:16:04;100106.13;;;9.14;61.67
57192;BME280;43052;52.588;13.396;2023-04-25T02:18:29;100105.25;;;9.13;61.25
57192;BME280;43052;52.588;13.396;2023-04-25T02:20:54;100098.38;;;9.06;61.27
57192;BME280;43052;52.588;13.396;2023-04-25T02:23:20;100105.31;;;9.05;61.36
57192;BME280;43052;52.588;13.396;2023-04-25T02:25:45;100100.09;;;9.05;61.44
57192;BME280;43052;52.588;13.396;2023-04-25T02:28:11;100104.53;;;9.00;61.31
57192;BME280;43052;52.588;13.396;2023-04-25T02:30:36;100105.41;;;8.99;61.79
57192;BME280;43052;52.588;13.396;2023-04-25T02:33:01;100101.03;;;9.00;61.51
57192;BME280;43052;52.588;13.396;2023-04-25T02:35:27;100091.50;;;8.97;61.53
57192;BME280;43052;52.588;13.396;2023-04-25T02:37:52;100102.81;;;8.96;61.51
57192;BME280;43052;52.588;13.396;2023-04-25T02:40:17;100101.13;;;8.90;62.00
57192;BME280;43052;52.588;13.396;2023-04-25T02:42:43;100102.03;;;8.89;61.88
57192;BME280;43052;52.588;13.396;2023-04-25T02:45:10;100102.84;;;8.91;61.85
57192;BME280;43052;52.588;13.396;2023-04-25T02:47:35;100098.47;;;8.97;61.79
57192;BME280;43052;52.588;13.396;2023-04-25T02:50:01;100102.75;;;9.04;61.87
57192;BME280;43052;52.588;13.396;2023-04-25T02:52:26;100100.94;;;9.11;61.57
57192;BME280;43052;52.588;13.396;2023-04-25T02:54:51;100090.53;;;9.07;61.56
57192;BME280;43052;52.588;13.396;2023-04-25T02:57:16;100092.28;;;9.05;61.63
57192;BME280;43052;52.588;13.396;2023-04-25T02:59:42;100100.97;;;9.04;61.58
57192;BME280;43052;52.588;13.396;2023-04-25T03:02:07;100095.78;;;9.04;61.42
57192;BME280;43052;52.588;13.396;2023-04-25T03:04:32;100104.44;;;9.09;61.33
57192;BME280;43052;52.588;13.396;2023-04-25T03:06:58;100104.44;;;9.08;61.54
57192;BME280;43052;52.588;13.396;2023-04-25T03:09:24;100104.50;;;9.03;61.90
57192;BME280;43052;52.588;13.396;2023-04-25T03:11:49;100103.59;;;9.06;61.56
57192;BME280;43052;52.588;13.396;2023-04-25T03:14:14;100096.63;;;9.06;61.45
57192;BME280;43052;52.588;13.396;2023-04-25T03:16:40;100100.91;;;9.14;61.56
57192;BME280;43052;52.588;13.396;2023-04-25T03:19:05;100105.25;;;9.15;61.71
57192;BME280;43052;52.588;13.396;2023-04-25T03:21:32;100105.31;;;9.05;61.59
57192;BME280;43052;52.588;13.396;2023-04-25T03:23:58;100108.75;;;9.12;61.71
57192;BME280;43052;52.588;13.396;2023-04-25T03:26:23;100100.91;;;9.15;61.59
57192;BME280;43052;52.588;13.396;2023-04-25T03:28:48;100099.97;;;9.21;61.49
57192;BME280;43052;52.588;13.396;2023-04-25T03:31:14;100102.59;;;9.21;61.42
57192;BME280;43052;52.588;13.396;2023-04-25T03:33:39;100106.13;;;9.15;61.33
57192;BME280;43052;52.588;13.396;2023-04-25T03:36:05;100110.50;;;9.10;61.47
57192;BME280;43052;52.588;13.396;2023-04-25T03:38:30;100102.66;;;9.13;61.33
57192;BME280;43052;52.588;13.396;2023-04-25T03:40:55;100104.44;;;9.09;61.31
57192;BME280;43052;52.588;13.396;2023-04-25T03:43:21;100106.19;;;9.07;61.34
57192;BME280;43052;52.588;13.396;2023-04-25T03:45:46;100103.56;;;9.09;61.63
57192;BME280;43052;52.588;13.396;2023-04-25T03:48:11;100099.25;;;9.05;61.63
57192;BME280;43052;52.588;13.396;2023-04-25T03:50:37;100112.31;;;9.03;61.78
57192;BME280;43052;52.588;13.396;2023-04-25T03:53:02;100109.66;;;9.06;61.75
57192;BME280;43052;52.588;13.396;2023-04-25T03:55:27;100114.84;;;9.11;61.72
57192;BME280;43052;52.588;13.396;2023-04-25T03:57:52;100120.06;;;9.11;61.45
57192;BME280;43052;52.588;13.396;2023-04-25T04:00:18;100115.72;;;9.12;61.86
57192;BME280;43052;52.588;13.396;2023-04-25T04:02:43;100114.84;;;9.08;61.82
57192;BME280;43052;52.588;13.396;2023-04-25T04:05:08;100120.97;;;9.08;61.84
57192;BME280;43052;52.588;13.396;2023-04-25T04:07:34;100114.06;;;9.01;61.94
57192;BME280;43052;52.588;13.396;2023-04-25T04:10:05;100122.81;;;8.96;61.99
57192;BME280;43052;52.588;13.396;2023-04-25T04:12:31;100134.09;;;8.99;62.05
57192;BME280;43052;52.588;13.396;2023-04-25T04:14:56;100121.88;;;9.03;61.96
57192;BME280;43052;52.588;13.396;2023-04-25T04:17:21;100138.34;;;9.06;62.10
57192;BME280;43052;52.588;13.396;2023-04-25T04:19:46;100135.72;;;9.09;61.94
57192;BME280;43052;52.588;13.396;2023-04-25T04:22:12;100128.75;;;9.10;61.55
57192;BME280;43052;52.588;13.396;2023-04-25T04:24:37;100134.84;;;9.11;62.00
57192;BME280;43052;52.588;13.396;2023-04-25T04:27:02;100147.03;;;9.12;62.03
57192;BME280;43052;52.588;13.396;2023-04-25T04:29:28;100135.72;;;9.09;61.93
57192;BME280;43052;52.588;13.396;2023-04-25T04:31:53;100143.56;;;9.09;61.80
57192;BME280;43052;52.588;13.396;2023-04-25T04:34:18;100147.03;;;9.12;61.80
57192;BME280;43052;52.588;13.396;2023-04-25T04:36:44;100142.59;;;9.18;61.76
57192;BME280;43052;52.588;13.396;2023-04-25T04:39:11;100142.56;;;9.24;61.61
57192;BME280;43052;52.588;13.396;2023-04-25T04:41:37;100147.75;;;9.26;61.66
57192;BME280;43052;52.588;13.396;2023-04-25T04:44:02;100145.13;;;9.26;61.61
57192;BME280;43052;52.588;13.396;2023-04-25T04:46:28;100145.94;;;9.33;61.56
57192;BME280;43052;52.588;13.396;2023-04-25T04:48:53;100151.13;;;9.34;61.25
57192;BME280;43052;52.588;13.396;2023-04-25T04:51:19;100154.59;;;9.35;61.46
57192;BME280;43052;52.588;13.396;2023-04-25T04:53:45;100151.94;;;9.39;60.96
57192;BME280;43052;52.588;13.396;2023-04-25T04:56:10;100157.97;;;9.46;61.00
57192;BME280;43052;52.588;13.396;2023-04-25T04:58:36;100155.34;;;9.48;61.24
57192;BME280;43052;52.588;13.396;2023-04-25T05:01:01;100155.25;;;9.57;60.87
57192;BME280;43052;52.588;13.396;2023-04-25T05:03:27;100152.53;;;9.66;60.80
57192;BME280;43052;52.588;13.396;2023-04-25T05:05:52;100149.06;;;9.66;60.58
57192;BME280;43052;52.588;13.396;2023-04-25T05:08:18;100149.03;;;9.67;60.55
57192;BME280;43052;52.588;13.396;2023-04-25T05:10:43;100156.75;;;9.77;60.31
57192;BME280;43052;52.588;13.396;2023-04-25T05:13:08;100146.38;;;9.74;60.44
57192;BME280;43052;52.588;13.396;2023-04-25T05:15:33;100154.97;;;9.82;60.19
57192;BME280;43052;52.588;13.396;2023-04-25T05:17:59;100159.19;;;9.94;60.20
57192;BME280;43052;52.588;13.396;2023-04-25T05:20:24;100157.44;;;9.96;60.04
57192;BME280;43052;52.588;13.396;2023-04-25T05:22:49;100154.81;;;9.94;60.00
57192;BME280;43052;52.588;13.396;2023-04-25T05:25:14;100149.59;;;9.94;59.83
57192;BME280;43052;52.588;13.396;2023-04-25T05:27:40;100151.34;;;9.94;59.71
57192;BME280;43052;52.588;13.396;2023-04-25T05:30:05;100158.31;;;9.93;59.99
57192;BME280;43052;52.588;13.396;2023-04-25T05:32:31;100165.34;;;9.88;59.97
57192;BME280;43052;52.588;13.396;2023-04-25T05:34:56;100160.91;;;9.93;60.15
57192;BME280;43052;52.588;13.396;2023-04-25T05:37:21;100160.84;;;9.99;59.88
57192;BME280;43052;52.588;13.396;2023-04-25T05:39:47;100164.31;;;10.00;59.84
57192;BME280;43052;52.588;13.396;2023-04-25T05:42:12;100156.50;;;9.98;59.76
57192;BME280;43052;52.588;13.396;2023-04-25T05:44:38;100170.34;;;10.05;59.67
57192;BME280;43052;52.588;13.396;2023-04-25T05:47:03;100171.13;;;10.12;59.97
57192;BME280;43052;52.588;13.396;2023-04-25T05:49:29;100173.69;;;10.18;59.69
57192;BME280;43052;52.588;13.396;2023-04-25T05:51:55;100173.81;;;10.09;59.71
57192;BME280;43052;52.588;13.396;2023-04-25T05:54:20;100175.59;;;10.03;59.68
57192;BME280;43052;52.588;13.396;2023-04-25T05:56:45;100172.13;;;10.01;59.88
57192;BME280;43052;52.588;13.396;2023-04-25T05:59:11;100189.56;;;10.01;59.87
57192;BME280;43052;52.588;13.396;2023-04-25T06:01:36;100179.09;;;10.02;59.78
57192;BME280;43052;52.588;13.396;2023-04-25T06:04:01;100186.16;;;9.94;59.81
57192;BME280;43052;52.588;13.396;2023-04-25T06:06:26;100180.88;;;10.00;59.91
57192;BME280;43052;52.588;13.396;2023-04-25T06:08:52;100187.69;;;10.12;60.03
57192;BME280;43052;52.588;13.396;2023-04-25T06:11:17;100190.13;;;10.25;59.77
57192;BME280;43052;52.588;13.396;2023-04-25T06:13:43;100189.22;;;10.27;59.62
57192;BME280;43052;52.588;13.396;2023-04-25T06:19:16;100201.31;;;10.36;59.38
57192;BME280;43052;52.588;13.396;2023-04-25T06:21:43;100203.00;;;10.42;59.78
57192;BME280;43052;52.588;13.396;2023-04-25T06:24:08;100205.69;;;10.37;59.50
57192;BME280;43052;52.588;13.396;2023-04-25T06:26:34;100202.31;;;10.26;59.68
57192;BME280;43052;52.588;13.396;2023-04-25T06:28:59;100198.22;;;10.04;60.35
57192;BME280;43052;52.588;13.396;2023-04-25T06:31:24;100205.44;;;9.82;61.04
57192;BME280;43052;52.588;13.396;2023-04-25T06:33:50;100203.75;;;9.77;61.33
57192;BME280;43052;52.588;13.396;2023-04-25T06:36:15;100204.66;;;9.77;61.20
57192;BME280;43052;52.588;13.396;2023-04-25T06:38:40;100205.56;;;9.70;61.31
57192;BME280;43052;52.588;13.396;2023-04-25T06:41:05;100206.34;;;9.80;61.71
57192;BME280;43052;52.588;13.396;2023-04-25T06:43:31;100201.91;;;9.88;61.19
57192;BME280;43052;52.588;13.396;2023-04-25T06:45:59;100203.59;;;9.92;61.36
57192;BME280;43052;52.588;13.396;2023-04-25T06:48:24;100195.72;;;9.95;61.44
57192;BME280;43052;52.588;13.396;2023-04-25T06:50:50;100212.19;;;10.02;61.29
57192;BME280;43052;52.588;13.396;2023-04-25T06:53:15;100211.19;;;10.12;61.35
57192;BME280;43052;52.588;13.396;2023-04-25T06:55:41;100196.28;;;10.19;61.08
57192;BME280;43052;52.588;13.396;2023-04-25T06:58:06;100206.69;;;10.24;60.94
57192;BME280;43052;52.588;13.396;2023-04-25T07:00:32;100203.34;;;10.14;60.97
57192;BME280;43052;52.588;13.396;2023-04-25T07:02:59;100210.31;;;10.13;61.19
57192;BME280;43052;52.588;13.396;2023-04-25T07:05:24;100215.63;;;10.06;61.38
57192;BME280;43052;52.588;13.396;2023-04-25T07:07:50;100211.44;;;9.91;61.28
57192;BME280;43052;52.588;13.396;2023-04-25T07:10:15;100225.47;;;9.80;61.50
57192;BME280;43052;52.588;13.396;2023-04-25T07:12:40;100224.72;;;9.74;61.87
57192;BME280;43052;52.588;13.396;2023-04-25T07:15:06;100218.56;;;9.75;61.82
57192;BME280;43052;52.588;13.396;2023-04-25T07:17:33;100230.75;;;9.77;61.98
57192;BME280;43052;52.588;13.396;2023-04-25T07:19:58;100228.94;;;9.82;62.22
57192;BME280;43052;52.588;13.396;2023-04-25T07:22:24;100224.53;;;9.89;62.28
57192;BME280;43052;52.588;13.396;2023-04-25T07:24:51;100227.94;;;9.94;62.11
57192;BME280;43052;52.588;13.396;2023-04-25T07:27:18;100235.69;;;10.02;61.84
57192;BME280;43052;52.588;13.396;2023-04-25T07:29:43;100232.94;;;10.14;61.78
57192;BME280;43052;52.588;13.396;2023-04-25T07:32:08;100234.50;;;10.29;61.17
57192;BME280;43052;52.588;13.396;2023-04-25T07:34:35;100242.28;;;10.37;60.88
57192;BME280;43052;52.588;13.396;2023-04-25T07:37:03;100246.56;;;10.43;60.39
57192;BME280;43052;52.588;13.396;2023-04-25T07:39:28;100242.22;;;10.40;59.92
57192;BME280;43052;52.588;13.396;2023-04-25T07:41:54;100246.56;;;10.41;59.79
57192;BME280;43052;52.588;13.396;2023-04-25T07:44:19;100251.09;;;10.27;59.97
57192;BME280;43052;52.588;13.396;2023-04-25T07:46:45;100251.09;;;10.27;59.53
57192;BME280;43052;52.588;13.396;2023-04-25T07:49:10;100250.06;;;10.42;58.66
57192;BME280;43052;52.588;13.396;2023-04-25T07:51:35;100262.97;;;10.53;58.22
57192;BME280;43052;52.588;13.396;2023-04-25T07:54:00;100254.06;;;10.68;57.26
57192;BME280;43052;52.588;13.396;2023-04-25T07:56:26;100257.22;;;10.91;56.38
57192;BME280;43052;52.588;13.396;2023-04-25T07:58:51;100264.63;;;11.19;55.73
57192;BME280;43052;52.588;13.396;2023-04-25T08:01:16;100265.00;;;11.51;55.48
57192;BME280;43052;52.588;13.396;2023-04-25T08:03:42;100279.13;;;11.90;54.79
57192;BME280;43052;52.588;13.396;2023-04-25T08:06:07;100280.69;;;12.45;53.96
57192;BME280;43052;52.588;13.396;2023-04-25T08:08:32;100267.06;;;13.09;52.41
57192;BME280;43052;52.588;13.396;2023-04-25T08:10:57;100277.72;;;13.73;50.39
57192;BME280;43052;52.588;13.396;2023-04-25T08:13:22;100281.13;;;13.78;49.69
57192;BME280;43052;52.588;13.396;2023-04-25T08:15:48;100283.09;;;13.70;50.13
57192;BME280;43052;52.588;13.396;2023-04-25T08:18:13;100286.38;;;13.44;50.03
57192;BME280;43052;52.588;13.396;2023-04-25T08:20:38;100289.25;;;12.95;50.87
57192;BME280;43052;52.588;13.396;2023-04-25T08:23:03;100281.06;;;12.70;51.54
57192;BME280;43052;52.588;13.396;2023-04-25T08:25:29;100289.75;;;12.72;51.41
57192;BME280;43052;52.588;13.396;2023-04-25T08:27:54;100295.13;;;13.05;51.30
57192;BME280;43052;52.588;13.396;2023-04-25T08:30:21;100307.53;;;13.36;50.46
57192;BME280;43052;52.588;13.396;2023-04-25T08:32:46;100311.34;;;13.23;50.05
57192;BME280;43052;52.588;13.396;2023-04-25T08:35:11;100308.84;;;13.18;50.18
57192;BME280;43052;52.588;13.396;2023-04-25T08:37:36;100312.88;;;12.94;49.66
57192;BME280;43052;52.588;13.396;2023-04-25T08:40:03;100317.56;;;13.19;49.42
57192;BME280;43052;52.588;13.396;2023-04-25T08:42:33;100321.13;;;13.54;48.62
57192;BME280;43052;52.588;13.396;2023-04-25T08:45:01;100308.97;;;13.86;46.53
57192;BME280;43052;52.588;13.396;2023-04-25T08:47:27;100315.88;;;15.66;43.77
57192;BME280;43052;52.588;13.396;2023-04-25T08:49:53;100309.25;;;18.50;38.27
57192;BME280;43052;52.588;13.396;2023-04-25T08:52:22;100296.84;;;21.89;33.23
57192;BME280;43052;52.588;13.396;2023-04-25T08:54:48;100303.25;;;22.73;29.50
57192;BME280;43052;52.588;13.396;2023-04-25T08:57:14;100306.84;;;22.87;29.72
57192;BME280;43052;52.588;13.396;2023-04-25T08:59:40;100314.84;;;23.69;27.83
57192;BME280;43052;52.588;13.396;2023-04-25T09:02:13;100313.66;;;23.33;27.63
57192;BME280;43052;52.588;13.396;2023-04-25T09:04:43;100318.75;;;23.08;26.98
57192;BME280;43052;52.588;13.396;2023-04-25T09:07:08;100309.78;;;25.17;25.77
57192;BME280;43052;52.588;13.396;2023-04-25T09:09:34;100308.75;;;28.01;22.52
57192;BME280;43052;52.588;13.396;2023-04-25T09:12:00;100322.34;;;29.91;19.87
57192;BME280;43052;52.588;13.396;2023-04-25T09:14:26;100318.38;;;28.66;20.04
57192;BME280;43052;52.588;13.396;2023-04-25T09:19:32;100327.59;;;27.47;21.62
57192;BME280;43052;52.588;13.396;2023-04-25T09:21:59;100334.94;;;29.02;20.64
57192;BME280;43052;52.588;13.396;2023-04-25T09:24:33;100330.72;;;30.73;19.47
57192;BME280;43052;52.588;13.396;2023-04-25T09:26:59;100327.00;;;31.92;17.48
57192;BME280;43052;52.588;13.396;2023-04-25T09:29:30;100329.53;;;31.67;16.91
57192;BME280;43052;52.588;13.396;2023-04-25T09:32:18;100331.69;;;31.46;17.42
57192;BME280;43052;52.588;13.396;2023-04-25T09:34:49;100333.25;;;29.11;18.10
57192;BME280;43052;52.588;13.396;2023-04-25T09:37:19;100342.03;;;26.34;20.88
57192;BME280;43052;52.588;13.396;2023-04-25T09:39:46;100331.97;;;27.81;21.09
57192;BME280;43052;52.588;13.396;2023-04-25T09:42:14;100336.25;;;29.76;18.39
57192;BME280;43052;52.588;13.396;2023-04-25T09:44:44;100345.75;;;28.09;17.62
57192;BME280;43052;52.588;13.396;2023-04-25T09:47:11;100361.22;;;24.84;20.79
57192;BME280;43052;52.588;13.396;2023-04-25T09:49:39;100359.50;;;22.83;22.62
57192;BME280;43052;52.588;13.396;2023-04-25T09:52:05;100360.50;;;22.37;23.33
57192;BME280;43052;52.588;13.396;2023-04-25T09:54:31;100353.97;;;21.05;24.16
57192;BME280;43052;52.588;13.396;2023-04-25T09:56:57;100362.00;;;20.38;25.53
57192;BME280;43052;52.588;13.396;2023-04-25T09:59:23;100351.16;;;21.08;26.04
57192;BME280;43052;52.588;13.396;2023-04-25T10:01:49;100352.66;;;23.06;23.39
57192;BME280;43052;52.588;13.396;2023-04-25T10:04:24;100363.28;;;24.54;21.73
57192;BME280;43052;52.588;13.396;2023-04-25T10:06:51;100352.88;;;26.89;19.61
57192;BME280;43052;52.588;13.396;2023-04-25T10:09:20;100358.22;;;29.13;16.97
57192;BME280;43052;52.588;13.396;2023-04-25T10:11:46;100351.28;;;29.59;15.94
57192;BME280;43052;52.588;13.396;2023-04-25T10:14:16;100348.91;;;28.76;16.60
57192;BME280;43052;52.588;13.396;2023-04-25T10:16:41;100355.44;;;26.57;18.08
57192;BME280;43052;52.588;13.396;2023-04-25T10:19:08;100372.16;;;24.42;20.32
57192;BME280;43052;52.588;13.396;2023-04-25T10:21:38;100369.97;;;22.43;21.76
57192;BME280;43052;52.588;13.396;2023-04-25T10:24:05;100376.00;;;20.06;24.02
57192;BME280;43052;52.588;13.396;2023-04-25T10:26:31;100377.44;;;18.24;26.42
57192;BME280;43052;52.588;13.396;2023-04-25T10:29:01;100386.94;;;17.42;27.71
57192;BME280;43052;52.588;13.396;2023-04-25T10:31:29;100383.94;;;17.29;27.90
57192;BME280;43052;52.588;13.396;2023-04-25T10:33:55;100390.06;;;17.07;28.82
57192;BME280;43052;52.588;13.396;2023-04-25T10:36:22;100381.59;;;16.74;29.20
57192;BME280;43052;52.588;13.396;2023-04-25T10:38:48;100385.81;;;16.31;29.36
57192;BME280;43052;52.588;13.396;2023-04-25T10:41:17;100389.84;;;16.16;30.08
57192;BME280;43052;52.588;13.396;2023-04-25T10:43:45;100395.34;;;16.35;29.79
57192;BME280;43052;52.588;13.396;2023-04-25T10:46:27;100394.56;;;16.56;29.42
57192;BME280;43052;52.588;13.396;2023-04-25T10:48:57;100386.63;;;16.33;29.77
57192;BME280;43052;52.588;13.396;2023-04-25T10:54:02;100394.75;;;16.75;28.96
57192;BME280;43052;52.588;13.396;2023-04-25T10:56:38;100402.88;;;16.95;28.91
57192;BME280;43052;52.588;13.396;2023-04-25T10:59:15;100393.41;;;17.35;29.07
57192;BME280;43052;52.588;13.396;2023-04-25T11:01:43;100397.13;;;17.74;28.52
57192;BME280;43052;52.588;13.396;2023-04-25T11:04:22;100399.44;;;17.38;28.44
57192;BME280;43052;52.588;13.396;2023-04-25T11:07:03;100416.09;;;16.69;28.69
57192;BME280;43052;52.588;13.396;2023-04-25T11:09:32;100427.16;;;15.48;30.09
57192;BME280;43052;52.588;13.396;2023-04-25T11:11:59;100427.25;;;14.53;31.09
57192;BME280;43052;52.588;13.396;2023-04-25T11:14:25;100441.53;;;13.72;32.54
57192;BME280;43052;52.588;13.396;2023-04-25T11:16:54;100444.72;;;13.07;32.99
57192;BME280;43052;52.588;13.396;2023-04-25T11:19:21;100447.16;;;12.72;34.05
57192;BME280;43052;52.588;13.396;2023-04-25T11:21:46;100437.19;;;12.44;33.84
57192;BME280;43052;52.588;13.396;2023-04-25T11:24:11;100456.16;;;12.59;34.02
57192;BME280;43052;52.588;13.396;2023-04-25T11:26:36;100449.13;;;13.06;33.72
57192;BME280;43052;52.588;13.396;2023-04-25T11:29:02;100462.09;;;13.55;33.34
57192;BME280;43052;52.588;13.396;2023-04-25T11:31:29;100450.56;;;14.00;33.05
57192;BME280;43052;52.588;13.396;2023-04-25T11:33:56;100453.44;;;14.58;31.79
57192;BME280;43052;52.588;13.396;2023-04-25T11:36:23;100454.47;;;14.85;31.12
57192;BME280;43052;52.588;13.396;2023-04-25T11:38:50;100457.16;;;15.14;30.75
57192;BME280;43052;52.588;13.396;2023-04-25T11:41:16;100456.41;;;15.40;30.44
57192;BME280;43052;52.588;13.396;2023-04-25T11:43:43;100459.72;;;15.47;29.56
57192;BME280;43052;52.588;13.396;2023-04-25T11:46:08;100450.38;;;15.37;29.64
57192;BME280;43052;52.588;13.396;2023-04-25T11:48:38;100463.06;;;15.52;29.82
57192;BME280;43052;52.588;13.396;2023-04-25T11:51:04;100462.97;;;15.55;30.40
57192;BME280;43052;52.588;13.396;2023-04-25T11:53:29;100451.88;;;15.72;29.94
57192;BME280;43052;52.588;13.396;2023-04-25T11:55:54;100469.78;;;15.62;29.88
57192;BME280;43052;52.588;13.396;2023-04-25T11:58:20;100464.19;;;15.43;30.20
57192;BME280;43052;52.588;13.396;2023-04-25T12:00:45;100469.91;;;15.29;30.30
57192;BME280;43052;52.588;13.396;2023-04-25T12:03:10;100469.56;;;15.10;30.74
57192;BME280;43052;52.588;13.396;2023-04-25T12:05:36;100472.63;;;14.95;30.52
57192;BME280;43052;52.588;13.396;2023-04-25T12:08:15;100481.19;;;15.03;30.12
57192;BME280;43052;52.588;13.396;2023-04-25T12:10:42;100484.91;;;14.94;30.24
57192;BME280;43052;52.588;13.396;2023-04-25T12:13:25;100482.38;;;15.23;30.64
57192;BME280;43052;52.588;13.396;2023-04-25T12:15:53;100483.50;;;15.14;30.49
57192;BME280;43052;52.588;13.396;2023-04-25T12:18:20;100475.84;;;15.04;31.24
57192;BME280;43052;52.588;13.396;2023-04-25T12:20:46;100478.69;;;14.98;31.00
57192;BME280;43052;52.588;13.396;2023-04-25T12:23:11;100479.44;;;15.02;30.49
57192;BME280;43052;52.588;13.396;2023-04-25T12:25:39;100483.88;;;15.01;30.19
57192;BME280;43052;52.588;13.396;2023-04-25T12:28:18;100482.63;;;15.43;30.61
57192;BME280;43052;52.588;13.396;2023-04-25T12:30:56;100476.50;;;15.73;29.20
57192;BME280;43052;52.588;13.396;2023-04-25T12:33:23;100474.06;;;15.37;29.73
57192;BME280;43052;52.588;13.396;2023-04-25T12:35:48;100477.19;;;15.19;30.42
57192;BME280;43052;52.588;13.396;2023-04-25T12:38:24;100482.91;;;15.34;30.37
57192;BME280;43052;52.588;13.396;2023-04-25T12:40:49;100491.91;;;14.97;30.31
57192;BME280;43052;52.588;13.396;2023-04-25T12:43:14;100481.72;;;14.50;31.10
57192;BME280;43052;52.588;13.396;2023-04-25T12:45:40;100485.53;;;14.02;31.87
57192;BME280;43052;52.588;13.396;2023-04-25T12:48:05;100485.78;;;13.92;31.94
57192;BME280;43052;52.588;13.396;2023-04-25T12:50:30;100486.28;;;14.07;32.48